Terminal Aerodrome Forecast
Issued by NWS Missoula, MT

Home | Current Version | Previous Version | Text Only | Print | Product List | Glossary On
Versions: 1 2 3 4 5 6 7 8 9 10 11 12
016
FTUS45 KMSO 262326
TAFGPI
TAF
KGPI 262326Z 2700/2724 15007KT P6SM FEW120
     FM270100 18005KT P6SM VCSH OVC050
     FM270500 VRB04KT P6SM VCSH BKN035 OVC050=

USA.gov is the U.S. government's official web portal to all federal, state and local government web resources and services.